Scroll down
FLIGHT INFORMATION
United Parcel Service (UPS)

UPS3821

At Arrival Gate

KONT
 PHOG
DATE: 2019-08-21
GATE:  -
GATE DEPARTURE: 17:49
TAKEOFF: 17:58
DATE: 2019-08-21
GATE:  -
LANDING: 22:52
GATE ARRIVAL: 22:56
FLIGHT DATA
Crew: 
Speed: 
514 kts
Altitude: 
38,009 ft
Stage Length: 
2,198.1 nm
Block Time: 
5 hrs
Flight Time: 
4.9 hrs
Fuel Used: 
98,984 lb
Cleared Route: KONT GMN RZS DINTY DUETS DADIE DIALO DUSAC DRAYK DENNS PHOG
TRACK DATA
50,000 ft 1,000 kts
AIRCRAFT INFO AND CUMULATIVE STATS
Aircraft Type: 
B744F
Registration: 
SELCAL: 
MSN/LN: 
25866 / 1002
Total Flights: 
6
Total Block Time: 
22.8 hrs
Total Flight Time: 
21.2 hrs
Total Fuel Used: 
474,518 lb
DATALINK LOG | Newest first | Current as of: 2021-11-30 21:05:48
LABEL SEQUENCE CONTENT Dn/Up
QD575422:56 31.4▼ Dn
QC533522:52▼ Dn
2U2552PHOG 212154Z 04019KT 10SM FEW030 SCT050 31/22 A3004 RMK AO2 PK WND 04026/2127 SLP178 T03110222 $▲ Up
2S2552PHOG▼ Dn
QB595317:58▼ Dn
QA503817:49 130.8▼ Dn
2U3601KONT 211653Z 21004KT 10SM CLR 27/12 A2989 RMK AO2 SLP103 T02670117▲ Up
2S3601KONT▼ Dn
A33151CLEARED TO PHOG VIA POM1 GMN RZS DINTY R576 DENNS LNDHY1. SQUAWK 6252.▲ Up
Q02839[LINK ACK]▲ Up
Q02745[LINK TEST]▼ Dn


AIRCRAFT HISTORY
FLIGHT DATE FLIGHT NO. ORIGIN DESTINATION CLEARED ROUTE BLOCK TIME FLIGHT TIME FUEL USED PILOT
2021-01-28UPS339TJSJ KSDF TJSJ SAPPO CHYLE JSTIN FARMN MANII NELSR COUKY RENAH ALUTE LASEE SLEMA OMALY NUCAR CHS SPA VXV KSDF4.3 hrs3.9 hrs94,236 lbZsolt Szivak
2020-12-27UPS340KSDF TJSJ KSDF OHAGI LOZ SPA CHS PITRW SPIKY LURKS HARON JAINS ILIDO LETON JORGG FIPEK PUYYA PLING SAALR TJSJ3.8 hrs3.4 hrs82,630 lbZsolt Szivak
2020-12-25UPS1225KONT KSDF KONT AVRRY LANCY DRK TBE GCK KK48A KK51G DAAVE KSDF3.8 hrs3.6 hrs82,184 lbZsolt Szivak
2020-05-25UPS519PHNL KONT PHNL MKK BLUSH SESXI ALICA EBBER ELOYI ERROT ETNIC ETECO EDSEL EDTOO ELKEY DIRBY PHUNN SHHOW COAZT KARLB POXKU PDZ PDZ RW26R5.3 hrs5 hrs105,600 lbChemtrails
2019-08-23UPS9621PHOG PHNL PHOG OGG LNY GRAMY SOBOW SERAH SAKKI JULLE ALANA MAKOA RW08L0.6 hrs0.4 hrs10,883 lbTom Landry
2019-08-21UPS3821KONT PHOG KONT GMN RZS DINTY DUETS DADIE DIALO DUSAC DRAYK DENNS PHOG5 hrs4.9 hrs98,984 lbTom Landry